Time;durP1;ratioP1;P1;durP2;ratioP2;P2;SDS_P1;SDS_P2;PMS_P1;PMS_P2;Temp;Humidity;BMP_temperature;BMP_pressure;BME280_temperature;BME280_humidity;BME280_pressure;Samples;Min_cycle;Max_cycle;Signal;HPM_P1;HPM_P2
2020/12/13 00:02:23;;;;;;;2.55;0.85;;;10.60;72.40;;;;;;6259542;28;20040;-73
2020/12/13 00:05:24;;;;;;;0.93;0.60;;;10.50;72.20;;;;;;6255715;28;20052;-73
2020/12/13 00:08:26;;;;;;;1.00;0.40;;;10.50;72.00;;;;;;6263346;28;20462;-73
2020/12/13 00:11:27;;;;;;;1.15;0.60;;;10.50;72.00;;;;;;6259318;28;20044;-73
2020/12/13 00:14:28;;;;;;;2.38;0.50;;;10.50;71.90;;;;;;6257190;28;20041;-73
2020/12/13 00:17:29;;;;;;;0.43;0.38;;;10.50;71.80;;;;;;6257713;28;20354;-73
2020/12/13 00:20:29;;;;;;;0.90;0.68;;;10.60;71.80;;;;;;6251867;28;20435;-72
2020/12/13 00:23:30;;;;;;;0.63;0.50;;;10.50;71.40;;;;;;6241673;28;20074;-72
2020/12/13 00:26:31;;;;;;;0.38;0.20;;;10.50;71.30;;;;;;6262389;28;20041;-72
2020/12/13 00:29:32;;;;;;;0.93;0.65;;;10.50;71.30;;;;;;6258060;28;20053;-72
2020/12/13 00:32:33;;;;;;;1.00;0.40;;;10.50;71.20;;;;;;6254720;28;20087;-73
2020/12/13 00:35:35;;;;;;;2.97;1.50;;;10.50;71.10;;;;;;6259116;28;20041;-72
2020/12/13 00:38:36;;;;;;;3.67;1.85;;;10.40;70.90;;;;;;6263222;28;20045;-72
2020/12/13 00:41:37;;;;;;;5.45;2.53;;;10.40;70.90;;;;;;6256783;28;20037;-72
2020/12/13 00:44:39;;;;;;;6.45;2.95;;;10.40;70.90;;;;;;6244127;28;20040;-71
2020/12/13 00:47:40;;;;;;;4.90;2.55;;;10.50;70.90;;;;;;6258365;28;20493;-71
2020/12/13 00:50:41;;;;;;;17.23;7.38;;;10.50;70.80;;;;;;6262372;28;20576;-72
2020/12/13 00:53:43;;;;;;;26.58;11.15;;;10.50;70.60;;;;;;6239603;28;20635;-72
2020/12/13 00:56:44;;;;;;;28.90;12.63;;;10.50;70.70;;;;;;6258749;28;20057;-72
2020/12/13 00:59:47;;;;;;;29.10;12.90;;;10.50;70.70;;;;;;6259777;28;20072;-72
2020/12/13 01:02:48;;;;;;;26.15;11.95;;;10.50;70.90;;;;;;6256507;28;20038;-72
2020/12/13 01:05:49;;;;;;;30.10;13.88;;;10.50;71.10;;;;;;6252947;28;20112;-72
2020/12/13 01:08:54;;;;;;;29.60;14.57;;;10.50;71.30;;;;;;6248336;28;20040;-72
2020/12/13 01:11:55;;;;;;;28.48;14.10;;;10.50;71.30;;;;;;6260377;28;20033;-72
2020/12/13 01:14:56;;;;;;;27.77;12.93;;;10.60;71.50;;;;;;6256230;28;20120;-71
2020/12/13 01:17:56;;;;;;;28.70;13.75;;;10.50;71.40;;;;;;6256473;28;20045;-74
2020/12/13 01:20:57;;;;;;;32.20;14.48;;;10.60;71.40;;;;;;6252148;28;20045;-74
2020/12/13 01:23:58;;;;;;;26.35;12.73;;;10.50;71.40;;;;;;6222270;28;20080;-73
2020/12/13 01:26:59;;;;;;;25.50;12.25;;;10.50;71.50;;;;;;6232636;28;20056;-72
2020/12/13 01:30:00;;;;;;;30.80;13.60;;;10.50;71.50;;;;;;6232588;28;20109;-72
2020/12/13 01:33:01;;;;;;;31.40;13.60;;;10.50;71.60;;;;;;6221826;28;20347;-72
2020/12/13 01:36:02;;;;;;;28.02;13.02;;;10.60;71.70;;;;;;6251977;28;20040;-71
2020/12/13 01:39:04;;;;;;;26.35;13.55;;;10.60;71.70;;;;;;6257245;28;20502;-74
2020/12/13 01:42:05;;;;;;;30.80;15.82;;;10.60;71.70;;;;;;6254125;28;20048;-73
2020/12/13 01:45:08;;;;;;;35.70;14.57;;;10.60;71.70;;;;;;6254282;28;20032;-73
2020/12/13 01:48:08;;;;;;;33.65;15.02;;;10.60;71.80;;;;;;6222302;28;20033;-74
2020/12/13 01:51:16;;;;;;;31.67;13.60;;;10.60;71.70;;;;;;6249514;28;20405;-73
2020/12/13 01:54:18;;;;;;;33.47;14.65;;;10.70;71.70;;;;;;6250558;28;20044;-74
2020/12/13 01:57:23;;;;;;;29.77;13.32;;;10.70;71.70;;;;;;6254149;28;20049;-72
2020/12/13 02:00:24;;;;;;;30.77;15.00;;;10.70;71.80;;;;;;6244019;28;20033;-71
2020/12/13 02:03:48;;;;;;;31.17;13.02;;;10.70;71.70;;;;;;6227584;28;20088;-72
2020/12/13 02:06:52;;;;;;;34.55;14.10;;;10.70;71.70;;;;;;6254113;28;20053;-74
2020/12/13 02:09:57;;;;;;;31.02;14.45;;;10.70;71.60;;;;;;6253492;28;20129;-73
2020/12/13 02:12:58;;;;;;;31.05;14.02;;;10.70;71.80;;;;;;6260119;28;20112;-73
2020/12/13 02:15:59;;;;;;;27.67;13.18;;;10.70;71.90;;;;;;6255627;28;20052;-73
2020/12/13 02:19:00;;;;;;;29.33;12.98;;;10.60;71.70;;;;;;6252505;28;22308;-73
2020/12/13 02:22:08;;;;;;;30.02;12.50;;;10.70;71.80;;;;;;6253724;28;20044;-73
2020/12/13 02:25:12;;;;;;;26.33;12.57;;;10.70;71.80;;;;;;6258136;28;20527;-72
2020/12/13 02:28:14;;;;;;;26.75;11.18;;;10.70;71.70;;;;;;6254411;28;20047;-73
2020/12/13 02:31:14;;;;;;;28.52;13.27;;;10.70;71.70;;;;;;6261604;28;20042;-74
2020/12/13 02:34:15;;;;;;;25.60;11.73;;;10.70;71.70;;;;;;6256327;28;20037;-74
2020/12/13 02:37:17;;;;;;;26.15;12.25;;;10.70;71.70;;;;;;6257862;28;20037;-72
2020/12/13 02:40:18;;;;;;;20.92;11.07;;;10.70;71.60;;;;;;6241446;28;20454;-73
2020/12/13 02:43:20;;;;;;;23.42;11.20;;;10.70;71.70;;;;;;6260855;28;20087;-73
2020/12/13 02:46:20;;;;;;;21.98;10.52;;;10.70;71.70;;;;;;6258482;28;20052;-72
2020/12/13 02:49:21;;;;;;;21.63;8.50;;;10.70;71.70;;;;;;6257281;28;20507;-72
2020/12/13 02:52:23;;;;;;;17.65;8.38;;;10.70;71.80;;;;;;6256387;28;20459;-72
2020/12/13 02:55:24;;;;;;;21.90;10.55;;;10.70;71.70;;;;;;6251989;28;20128;-72
2020/12/13 02:58:25;;;;;;;23.25;10.75;;;10.70;71.70;;;;;;6253934;28;20059;-72
2020/12/13 03:01:29;;;;;;;23.52;10.98;;;10.70;71.70;;;;;;6235109;28;20029;-74
2020/12/13 03:04:31;;;;;;;24.40;11.65;;;10.70;71.80;;;;;;6252728;28;20144;-73
2020/12/13 03:07:31;;;;;;;24.02;10.73;;;10.80;71.80;;;;;;6252924;28;20098;-72
2020/12/13 03:10:34;;;;;;;26.45;12.18;;;10.80;71.80;;;;;;6252196;28;20049;-72
2020/12/13 03:13:35;;;;;;;28.00;12.43;;;10.80;71.80;;;;;;6258065;28;20144;-73
2020/12/13 03:16:36;;;;;;;22.08;11.55;;;10.80;71.60;;;;;;6255999;28;20037;-72
2020/12/13 03:19:37;;;;;;;21.23;10.35;;;10.80;71.60;;;;;;6257836;28;20102;-72
2020/12/13 03:22:38;;;;;;;24.35;12.10;;;10.80;71.50;;;;;;6238270;28;20040;-72
2020/12/13 03:25:39;;;;;;;27.52;12.55;;;10.80;71.50;;;;;;6260087;28;20120;-72
2020/12/13 03:28:40;;;;;;;24.17;12.00;;;10.80;71.40;;;;;;6263018;28;20108;-72
2020/12/13 03:36:03;;;;;;;19.70;11.02;;;10.70;71.50;;;;;;6245928;28;20383;-72
2020/12/13 03:39:05;;;;;;;29.63;12.40;;;10.70;71.50;;;;;;6219401;28;20053;-72
2020/12/13 03:42:06;;;;;;;30.58;11.70;;;10.70;71.70;;;;;;6249304;28;20060;-72
2020/12/13 03:45:09;;;;;;;23.23;11.02;;;10.70;71.60;;;;;;6245067;28;20057;-72
2020/12/13 03:48:10;;;;;;;25.67;12.35;;;10.70;71.60;;;;;;6257596;28;20041;-72
2020/12/13 03:51:10;;;;;;;24.73;11.18;;;10.70;71.50;;;;;;6226518;28;20056;-72
2020/12/13 03:54:11;;;;;;;25.23;11.25;;;10.70;71.60;;;;;;6227089;28;20037;-72
2020/12/13 03:57:12;;;;;;;24.52;11.10;;;10.70;71.50;;;;;;6233154;28;20122;-72
2020/12/13 04:00:13;;;;;;;21.10;10.13;;;10.70;71.40;;;;;;6252377;28;20123;-73
2020/12/13 04:03:15;;;;;;;21.45;9.60;;;10.70;71.40;;;;;;6257549;28;20107;-73
2020/12/13 04:06:16;;;;;;;20.20;10.02;;;10.70;71.50;;;;;;6261955;28;20564;-73
2020/12/13 04:09:17;;;;;;;21.67;10.70;;;10.70;71.50;;;;;;6251864;28;20025;-73
2020/12/13 04:12:18;;;;;;;20.98;9.82;;;10.70;71.50;;;;;;6258101;28;20032;-73
2020/12/13 04:15:19;;;;;;;20.52;9.73;;;10.70;71.40;;;;;;6234275;28;20087;-73
2020/12/13 04:18:20;;;;;;;25.15;11.32;;;10.60;71.20;;;;;;6246838;28;20063;-73
2020/12/13 04:21:21;;;;;;;24.00;10.45;;;10.60;71.30;;;;;;6257764;28;20029;-73
2020/12/13 04:24:22;;;;;;;22.85;11.00;;;10.50;71.30;;;;;;6255561;28;20061;-73
2020/12/13 04:27:23;;;;;;;20.45;9.80;;;10.60;71.40;;;;;;6254101;28;20088;-73
2020/12/13 04:30:24;;;;;;;22.80;9.88;;;10.50;71.40;;;;;;6257612;28;20028;-73
2020/12/13 04:33:25;;;;;;;22.52;11.30;;;10.50;71.50;;;;;;6238759;28;20041;-73
2020/12/13 04:36:25;;;;;;;26.10;10.65;;;10.50;71.60;;;;;;6254767;28;20025;-73
2020/12/13 04:39:26;;;;;;;21.65;10.63;;;10.50;71.70;;;;;;6239685;28;20037;-73
2020/12/13 04:42:29;;;;;;;19.77;10.02;;;10.50;71.60;;;;;;6254582;28;20049;-73
2020/12/13 04:45:30;;;;;;;19.45;9.32;;;10.40;71.60;;;;;;6244971;28;20056;-73
2020/12/13 04:48:31;;;;;;;22.63;9.93;;;10.50;71.70;;;;;;6256993;28;20083;-73
2020/12/13 04:51:33;;;;;;;16.98;8.80;;;10.50;71.80;;;;;;6257992;28;20029;-73
2020/12/13 04:54:34;;;;;;;16.05;8.00;;;10.50;71.70;;;;;;6258006;28;20094;-73
2020/12/13 04:57:35;;;;;;;14.43;7.25;;;10.50;71.70;;;;;;6259998;28;20412;-72
2020/12/13 05:00:38;;;;;;;16.45;8.68;;;10.50;71.60;;;;;;6257150;28;20091;-72
2020/12/13 05:03:38;;;;;;;18.05;8.23;;;10.40;71.50;;;;;;6256435;28;20116;-72
2020/12/13 05:06:40;;;;;;;18.35;8.50;;;10.40;71.60;;;;;;6233222;28;20359;-72
2020/12/13 05:09:41;;;;;;;22.63;10.10;;;10.40;71.60;;;;;;6263030;28;20052;-72
2020/12/13 05:12:42;;;;;;;17.42;9.00;;;10.30;71.70;;;;;;6258340;28;20343;-72
2020/12/13 05:15:43;;;;;;;18.23;7.55;;;10.30;71.70;;;;;;6244990;28;20025;-73
2020/12/13 05:18:44;;;;;;;16.85;8.68;;;10.30;71.70;;;;;;6254107;28;20041;-73
2020/12/13 05:21:46;;;;;;;17.27;7.88;;;10.30;71.70;;;;;;6260360;28;20037;-73
2020/12/13 05:29:05;;;;;;;14.30;7.18;;;10.30;71.90;;;;;;6252455;28;20823;-71
2020/12/13 05:32:25;;;;;;;12.00;6.25;;;10.30;71.90;;;;;;6256852;28;20098;-72
2020/12/13 05:35:28;;;;;;;12.52;6.07;;;10.30;71.90;;;;;;6259261;28;20044;-72
2020/12/13 05:38:39;;;;;;;13.88;6.28;;;10.30;71.90;;;;;;6255717;28;20087;-72
2020/12/13 05:41:40;;;;;;;15.07;5.88;;;10.30;71.90;;;;;;6237330;28;20171;-72
2020/12/13 05:48:23;;;;;;;12.75;5.95;;;10.20;71.60;;;;;;6241501;28;20041;-73
2020/12/13 05:54:40;;;;;;;14.40;5.68;;;10.20;71.40;;;;;;6256090;28;20033;-73
2020/12/13 05:57:41;;;;;;;11.20;5.60;;;10.10;71.50;;;;;;6254178;28;20094;-73
2020/12/13 06:00:42;;;;;;;14.52;4.63;;;10.10;71.60;;;;;;6253148;28;20351;-72
2020/12/13 06:03:49;;;;;;;9.85;4.13;;;10.10;71.30;;;;;;6240324;28;20041;-72
2020/12/13 06:06:55;;;;;;;7.93;4.43;;;10.10;71.10;;;;;;6252456;28;20029;-72
2020/12/13 06:10:05;;;;;;;8.80;4.20;;;10.00;70.80;;;;;;6218203;28;20432;-74
2020/12/13 06:13:06;;;;;;;8.60;4.30;;;10.00;70.80;;;;;;6251697;28;20040;-72
2020/12/13 06:16:08;;;;;;;9.13;4.35;;;10.00;70.90;;;;;;6258198;28;20076;-74
2020/12/13 06:19:11;;;;;;;10.70;4.97;;;9.90;71.00;;;;;;6251271;28;20152;-73
2020/12/13 06:22:13;;;;;;;10.43;4.38;;;9.90;71.20;;;;;;6254145;28;20033;-72
2020/12/13 06:25:14;;;;;;;8.73;4.25;;;9.90;71.30;;;;;;6257214;28;20037;-71
2020/12/13 06:28:16;;;;;;;8.07;3.78;;;9.90;71.40;;;;;;6244061;28;20374;-72
2020/12/13 06:31:18;;;;;;;7.75;3.97;;;9.90;71.50;;;;;;6241891;28;20084;-73
2020/12/13 06:34:19;;;;;;;4.43;2.60;;;9.90;71.50;;;;;;6255996;28;20154;-73
2020/12/13 06:37:21;;;;;;;8.27;2.92;;;9.90;71.50;;;;;;6253766;28;20417;-73
2020/12/13 06:40:25;;;;;;;7.05;3.47;;;10.00;71.50;;;;;;6235674;28;20418;-73
2020/12/13 06:43:27;;;;;;;5.05;2.50;;;10.00;71.50;;;;;;6255989;28;20041;-73
2020/12/13 06:46:29;;;;;;;5.85;1.70;;;10.10;71.40;;;;;;6261183;28;20307;-72
2020/12/13 06:49:30;;;;;;;4.65;1.65;;;10.10;71.40;;;;;;6253893;28;20044;-72
2020/12/13 06:52:35;;;;;;;2.47;1.40;;;10.10;71.30;;;;;;6255750;28;20116;-72
2020/12/13 06:55:36;;;;;;;7.72;1.70;;;10.20;71.20;;;;;;6259783;28;20473;-72
2020/12/13 06:58:45;;;;;;;8.00;1.90;;;10.30;71.10;;;;;;6243938;28;20049;-72
2020/12/13 07:01:47;;;;;;;3.35;1.30;;;10.30;70.90;;;;;;6252064;28;20060;-72
2020/12/13 07:04:49;;;;;;;4.30;1.95;;;10.40;70.60;;;;;;6257450;28;20047;-73
2020/12/13 07:07:54;;;;;;;2.20;1.40;;;10.40;70.40;;;;;;6244169;28;20436;-71
2020/12/13 07:10:55;;;;;;;3.20;1.40;;;10.40;70.40;;;;;;6233162;28;20037;-72
2020/12/13 07:14:04;;;;;;;4.00;1.92;;;10.40;70.20;;;;;;6240459;28;20490;-72
2020/12/13 07:17:11;;;;;;;2.92;1.60;;;10.40;70.10;;;;;;6252545;28;20076;-72
2020/12/13 07:20:13;;;;;;;3.38;1.40;;;10.50;70.10;;;;;;6256338;28;20021;-72
2020/12/13 07:23:14;;;;;;;3.83;2.35;;;10.50;70.00;;;;;;6239957;28;20025;-72
2020/12/13 07:26:16;;;;;;;4.43;2.10;;;10.50;69.60;;;;;;6255850;28;20037;-73
2020/12/13 07:29:19;;;;;;;3.15;1.80;;;10.50;69.60;;;;;;6245420;28;20037;-73
2020/12/13 07:32:22;;;;;;;3.28;1.75;;;10.50;69.70;;;;;;6260911;28;20030;-73
2020/12/13 07:35:23;;;;;;;2.15;1.23;;;10.50;69.70;;;;;;6239495;28;20033;-73
2020/12/13 07:38:24;;;;;;;6.88;2.45;;;10.50;69.60;;;;;;6254171;28;20041;-73
2020/12/13 07:41:26;;;;;;;3.05;1.70;;;10.50;69.50;;;;;;6257530;28;20524;-73
2020/12/13 07:44:26;;;;;;;3.28;1.60;;;10.50;69.50;;;;;;6248113;28;20045;-73
2020/12/13 07:47:27;;;;;;;4.60;2.25;;;10.50;69.40;;;;;;6228739;28;20038;-73
2020/12/13 07:50:42;;;;;;;7.90;1.88;;;10.50;69.30;;;;;;6242655;28;20037;-74
2020/12/13 07:53:43;;;;;;;8.70;1.88;;;10.60;69.30;;;;;;6266172;28;20376;-72
2020/12/13 07:56:46;;;;;;;3.10;1.67;;;10.60;69.20;;;;;;6254851;28;20075;-73
2020/12/13 07:59:46;;;;;;;4.20;1.77;;;10.60;69.00;;;;;;6251951;28;20037;-73
2020/12/13 08:02:48;;;;;;;4.28;2.22;;;10.60;69.10;;;;;;6254392;28;20079;-73
2020/12/13 08:05:59;;;;;;;4.28;2.28;;;10.60;68.90;;;;;;6237573;28;20038;-72
2020/12/13 08:09:09;;;;;;;4.35;2.10;;;10.70;68.90;;;;;;6244767;28;20371;-73
2020/12/13 08:12:11;;;;;;;3.67;2.42;;;10.70;68.90;;;;;;6223132;28;20454;-73
2020/12/13 08:15:14;;;;;;;5.35;2.70;;;10.70;68.70;;;;;;6225335;28;20037;-74
2020/12/13 08:18:16;;;;;;;7.70;3.20;;;10.70;68.50;;;;;;6215319;28;20061;-74
2020/12/13 08:21:41;;;;;;;9.73;3.50;;;10.70;68.50;;;;;;6232726;28;20146;-73
2020/12/13 08:24:43;;;;;;;6.38;3.42;;;10.70;68.40;;;;;;6253543;28;20072;-73
2020/12/13 08:27:45;;;;;;;7.28;3.33;;;10.70;68.10;;;;;;6261397;28;20040;-73
2020/12/13 08:30:49;;;;;;;6.78;3.53;;;10.70;68.10;;;;;;6258386;28;20040;-73
2020/12/13 08:34:00;;;;;;;10.15;4.22;;;10.70;68.20;;;;;;6258785;28;20205;-72
2020/12/13 08:37:01;;;;;;;7.57;3.83;;;10.70;68.30;;;;;;6259071;28;20034;-73
2020/12/13 08:40:08;;;;;;;7.68;4.18;;;10.70;68.30;;;;;;6212308;28;20374;-73
2020/12/13 08:43:10;;;;;;;11.32;3.50;;;10.80;68.30;;;;;;6231874;28;20050;-73
2020/12/13 08:46:32;;;;;;;9.60;4.07;;;10.80;68.30;;;;;;6230735;28;20037;-73
2020/12/13 08:49:39;;;;;;;6.90;3.85;;;10.90;68.30;;;;;;6243829;28;20033;-73
2020/12/13 08:52:40;;;;;;;8.05;3.67;;;10.90;68.10;;;;;;6255003;28;20370;-73
2020/12/13 08:55:41;;;;;;;6.70;3.50;;;10.90;67.90;;;;;;6255496;28;20029;-73
2020/12/13 08:58:51;;;;;;;13.88;5.95;;;11.00;67.70;;;;;;6258708;28;20484;-74
2020/12/13 09:01:58;;;;;;;14.70;4.95;;;11.00;67.70;;;;;;6254078;28;20044;-73
2020/12/13 09:05:00;;;;;;;10.40;4.70;;;11.00;67.80;;;;;;6254302;28;20033;-73
2020/12/13 09:08:01;;;;;;;9.45;4.50;;;11.00;67.80;;;;;;6256441;28;20494;-73
2020/12/13 09:11:05;;;;;;;5.80;3.95;;;11.10;67.80;;;;;;6257727;28;20071;-73
2020/12/13 09:14:06;;;;;;;9.85;4.82;;;11.10;67.70;;;;;;6235491;28;20030;-73
2020/12/13 09:17:07;;;;;;;8.13;4.45;;;11.10;67.70;;;;;;6247261;28;20386;-73
2020/12/13 09:20:08;;;;;;;11.00;4.57;;;11.10;67.70;;;;;;6247943;28;20064;-73
2020/12/13 09:23:19;;;;;;;12.18;5.18;;;11.10;67.60;;;;;;6254176;28;20025;-72
2020/12/13 09:26:23;;;;;;;9.43;4.97;;;11.10;67.60;;;;;;6254607;28;20075;-72
2020/12/13 09:29:25;;;;;;;8.77;5.07;;;11.10;67.60;;;;;;6231304;28;20388;-72
2020/12/13 09:32:25;;;;;;;9.02;5.22;;;11.00;67.70;;;;;;6216680;28;20041;-72
2020/12/13 09:35:33;;;;;;;10.05;5.30;;;11.10;67.80;;;;;;6228884;28;20040;-72
2020/12/13 09:38:33;;;;;;;8.95;5.07;;;11.10;67.90;;;;;;6219875;28;20037;-71
2020/12/13 09:41:34;;;;;;;9.50;4.82;;;11.20;67.90;;;;;;6232448;28;20497;-73
2020/12/13 09:44:36;;;;;;;8.35;4.35;;;11.20;67.80;;;;;;6232357;28;20045;-72
2020/12/13 09:47:36;;;;;;;8.45;4.65;;;11.30;67.80;;;;;;6212216;28;20067;-73
2020/12/13 09:50:37;;;;;;;10.07;4.97;;;11.40;67.70;;;;;;6233298;28;20124;-73
2020/12/13 09:53:38;;;;;;;13.43;4.90;;;11.40;67.50;;;;;;6229192;28;20038;-73
2020/12/13 09:56:39;;;;;;;16.70;5.55;;;11.50;67.30;;;;;;6229044;28;20053;-73
2020/12/13 09:59:40;;;;;;;16.27;6.18;;;11.50;67.20;;;;;;6230179;28;20482;-72
2020/12/13 10:02:42;;;;;;;11.20;6.00;;;11.60;67.10;;;;;;6236541;28;20038;-75
2020/12/13 10:06:02;;;;;;;13.63;6.60;;;11.60;66.70;;;;;;6237680;28;20606;-73
2020/12/13 10:09:10;;;;;;;12.98;5.82;;;11.60;66.70;;;;;;6248181;28;20354;-73
2020/12/13 10:12:11;;;;;;;14.52;6.50;;;11.60;66.70;;;;;;6259527;28;20477;-73
2020/12/13 10:15:12;;;;;;;13.00;6.57;;;11.70;66.50;;;;;;6259018;28;20080;-74
2020/12/13 10:18:14;;;;;;;17.08;6.82;;;11.80;66.40;;;;;;6239392;28;20122;-73
2020/12/13 10:21:22;;;;;;;17.90;7.00;;;11.90;66.30;;;;;;6239734;28;20031;-74
2020/12/13 10:24:23;;;;;;;15.02;6.50;;;12.00;66.20;;;;;;6256394;28;20041;-73
2020/12/13 10:27:24;;;;;;;14.88;7.50;;;12.00;65.90;;;;;;6236215;28;20037;-74
2020/12/13 10:30:25;;;;;;;13.07;6.35;;;12.10;65.50;;;;;;6262982;28;20120;-73
2020/12/13 10:33:25;;;;;;;56.50;17.63;;;12.00;65.30;;;;;;6254488;28;20447;-74
2020/12/13 10:36:28;;;;;;;24.73;8.20;;;12.00;65.50;;;;;;6255219;28;20025;-74
2020/12/13 10:39:28;;;;;;;19.15;8.75;;;12.00;65.60;;;;;;6257308;28;20056;-74
2020/12/13 10:42:29;;;;;;;24.33;7.80;;;12.00;65.60;;;;;;6250922;28;20057;-73
2020/12/13 10:45:33;;;;;;;16.38;6.13;;;12.00;65.40;;;;;;6218373;28;20042;-73
2020/12/13 10:48:35;;;;;;;18.58;7.75;;;12.00;65.50;;;;;;6233845;28;20037;-74
2020/12/13 10:51:35;;;;;;;12.25;6.40;;;12.00;65.40;;;;;;6258684;28;20148;-73
2020/12/13 10:54:37;;;;;;;14.63;6.47;;;12.00;65.30;;;;;;6256117;28;20048;-74
2020/12/13 10:57:38;;;;;;;17.10;8.10;;;12.00;65.60;;;;;;6256566;28;20033;-73
2020/12/13 11:00:40;;;;;;;21.90;9.90;;;12.10;65.70;;;;;;6253963;28;20117;-74
2020/12/13 11:03:41;;;;;;;23.60;10.18;;;12.20;65.70;;;;;;6252820;28;20037;-74
2020/12/13 11:06:46;;;;;;;15.13;7.20;;;12.40;65.30;;;;;;6256763;28;20025;-73
2020/12/13 11:09:47;;;;;;;19.45;7.95;;;12.60;64.30;;;;;;6218826;28;20112;-74
2020/12/13 11:12:48;;;;;;;24.90;11.98;;;12.70;63.80;;;;;;6254923;28;20074;-73
2020/12/13 11:15:49;;;;;;;13.38;5.18;;;12.80;63.40;;;;;;6251570;28;20455;-74
2020/12/13 11:18:51;;;;;;;16.17;5.70;;;12.90;63.20;;;;;;6250482;28;20049;-72
2020/12/13 11:21:51;;;;;;;12.05;5.82;;;12.80;62.70;;;;;;6218650;28;20371;-73
2020/12/13 11:24:53;;;;;;;10.82;5.35;;;12.80;62.50;;;;;;6246661;28;20128;-73
2020/12/13 11:27:54;;;;;;;11.55;4.82;;;12.80;62.30;;;;;;6253316;28;20041;-73
2020/12/13 11:30:55;;;;;;;9.48;4.63;;;12.80;62.30;;;;;;6240255;28;20170;-73
2020/12/13 11:33:56;;;;;;;9.00;4.32;;;12.80;62.30;;;;;;6252460;28;20045;-72
2020/12/13 11:36:57;;;;;;;17.15;5.78;;;12.80;62.40;;;;;;6256064;28;20171;-73
2020/12/13 11:39:58;;;;;;;13.52;6.22;;;12.90;62.60;;;;;;6257594;28;20474;-75
2020/12/13 11:43:00;;;;;;;47.33;15.77;;;12.90;62.20;;;;;;6253423;28;20044;-73
2020/12/13 11:46:01;;;;;;;32.58;14.35;;;12.90;62.20;;;;;;6260060;28;20098;-72
2020/12/13 11:49:02;;;;;;;24.08;11.00;;;12.90;62.10;;;;;;6259169;28;20021;-72
2020/12/13 11:52:03;;;;;;;15.00;7.38;;;12.90;62.10;;;;;;6257726;28;20522;-73
2020/12/13 11:55:04;;;;;;;20.10;9.02;;;12.90;62.20;;;;;;6245603;28;20071;-74
2020/12/13 11:58:05;;;;;;;19.20;5.95;;;12.90;62.20;;;;;;6254948;28;20049;-73
2020/12/13 12:01:07;;;;;;;24.73;7.70;;;12.90;61.90;;;;;;6247585;28;20036;-73
2020/12/13 12:04:08;;;;;;;10.50;4.72;;;12.90;61.80;;;;;;6259175;28;20033;-72
2020/12/13 12:07:09;;;;;;;12.05;4.93;;;12.90;61.90;;;;;;6242600;28;20033;-73
2020/12/13 12:10:10;;;;;;;9.48;4.50;;;13.00;61.90;;;;;;6256749;28;20048;-71
2020/12/13 12:13:11;;;;;;;11.60;5.22;;;13.00;61.80;;;;;;6256418;28;20081;-74
2020/12/13 12:16:13;;;;;;;7.65;4.10;;;13.00;61.40;;;;;;6216693;28;20041;-74
2020/12/13 12:19:15;;;;;;;9.70;5.28;;;13.00;61.40;;;;;;6237976;28;20034;-72
2020/12/13 12:22:15;;;;;;;10.80;5.55;;;13.00;61.50;;;;;;6220497;28;20030;-72
2020/12/13 12:25:16;;;;;;;10.05;5.47;;;13.00;61.60;;;;;;6218737;28;20370;-72
2020/12/13 12:28:17;;;;;;;8.50;4.07;;;13.00;61.90;;;;;;6257070;28;20034;-73
2020/12/13 12:31:19;;;;;;;15.15;5.45;;;13.10;61.50;;;;;;6247632;28;20120;-73
2020/12/13 12:34:20;;;;;;;12.93;7.25;;;13.10;61.40;;;;;;6261154;28;20132;-75
2020/12/13 12:37:22;;;;;;;22.17;8.55;;;13.20;61.60;;;;;;6257579;28;20090;-73
2020/12/13 12:40:23;;;;;;;18.48;8.50;;;13.20;61.70;;;;;;6232526;28;20108;-72
2020/12/13 12:43:24;;;;;;;17.90;7.78;;;13.20;61.80;;;;;;6250883;28;20051;-72
2020/12/13 12:46:25;;;;;;;12.85;6.45;;;13.20;62.00;;;;;;6264597;28;20045;-73
2020/12/13 12:49:26;;;;;;;15.88;7.07;;;13.20;62.00;;;;;;6262386;28;20032;-73
2020/12/13 12:52:27;;;;;;;11.50;5.60;;;13.20;62.10;;;;;;6260927;28;20486;-74
2020/12/13 12:55:30;;;;;;;13.80;6.90;;;13.20;61.90;;;;;;6258236;28;20434;-72
2020/12/13 12:58:40;;;;;;;11.35;5.10;;;13.20;61.90;;;;;;6254973;28;20071;-73
2020/12/13 13:01:48;;;;;;;11.63;4.90;;;13.20;61.60;;;;;;6228056;28;20038;-73
2020/12/13 13:05:00;;;;;;;12.57;4.95;;;13.20;61.70;;;;;;6246379;28;20030;-72
2020/12/13 13:08:09;;;;;;;11.52;4.70;;;13.20;61.90;;;;;;6259025;28;20045;-72
2020/12/13 13:11:33;;;;;;;14.18;7.15;;;13.20;62.00;;;;;;6257739;28;20148;-72
2020/12/13 13:14:34;;;;;;;12.50;6.05;;;13.20;61.90;;;;;;6256820;28;20052;-74
2020/12/13 13:17:40;;;;;;;9.65;5.45;;;13.10;61.80;;;;;;6254036;28;20045;-72
2020/12/13 13:20:42;;;;;;;11.98;5.35;;;13.10;62.00;;;;;;6241440;28;20114;-73
2020/12/13 13:23:43;;;;;;;16.95;7.88;;;13.10;62.10;;;;;;6257100;28;20073;-74
2020/12/13 13:26:43;;;;;;;12.70;5.25;;;13.00;61.90;;;;;;6257706;28;20029;-74
2020/12/13 13:29:46;;;;;;;22.98;6.50;;;13.00;61.70;;;;;;6231982;28;20747;-73
2020/12/13 13:32:47;;;;;;;17.48;7.07;;;13.00;61.90;;;;;;6254939;28;20469;-74
2020/12/13 13:35:48;;;;;;;27.58;10.57;;;13.10;61.60;;;;;;6257061;28;20044;-73
2020/12/13 13:38:50;;;;;;;26.05;9.70;;;13.20;61.70;;;;;;6260004;28;20053;-73
2020/12/13 13:41:52;;;;;;;8.25;4.40;;;13.30;61.20;;;;;;6253394;28;20029;-73
2020/12/13 13:45:10;;;;;;;20.10;7.82;;;13.40;60.50;;;;;;6258302;28;20079;-73
2020/12/13 13:48:32;;;;;;;13.35;5.32;;;13.50;60.40;;;;;;6255650;28;20095;-74
2020/12/13 13:51:31;;;;;;;8.18;3.25;;;13.60;60.00;;;;;;6249531;28;20158;-73
2020/12/13 13:54:32;;;;;;;16.02;5.00;;;13.70;59.50;;;;;;6259567;28;20037;-73
2020/12/13 13:57:34;;;;;;;8.60;2.78;;;13.70;59.30;;;;;;6260906;28;20061;-73
2020/12/13 14:00:35;;;;;;;6.82;3.58;;;13.70;59.00;;;;;;6256655;28;20044;-74
2020/12/13 14:03:36;;;;;;;5.05;2.75;;;13.70;59.20;;;;;;6260047;28;20040;-73
2020/12/13 14:07:06;;;;;;;6.47;2.47;;;13.70;59.40;;;;;;6251894;28;20046;-73
2020/12/13 14:09:58;;;;;;;3.53;2.15;;;13.60;59.20;;;;;;6251415;28;20419;-73
2020/12/13 14:12:58;;;;;;;10.55;2.55;;;13.50;59.20;;;;;;6255799;28;20072;-73
2020/12/13 14:16:00;;;;;;;3.45;2.30;;;13.40;59.40;;;;;;6253269;28;20064;-73
2020/12/13 14:19:01;;;;;;;6.03;2.10;;;13.40;59.60;;;;;;6239672;28;20062;-72
2020/12/13 14:30:33;;;;;;;6.95;2.97;;;13.10;59.50;;;;;;6253836;28;20033;-73
2020/12/13 14:33:34;;;;;;;5.40;2.42;;;13.00;59.50;;;;;;6234768;28;20045;-72
2020/12/13 14:36:35;;;;;;;4.57;2.88;;;12.90;59.60;;;;;;6254817;28;20095;-74
2020/12/13 14:39:36;;;;;;;5.05;2.30;;;12.90;59.80;;;;;;6253153;28;20037;-73
2020/12/13 14:42:37;;;;;;;6.32;3.00;;;12.90;59.90;;;;;;6254233;28;20528;-74
2020/12/13 14:45:38;;;;;;;7.22;3.45;;;12.80;60.00;;;;;;6243760;28;20462;-73
2020/12/13 14:48:39;;;;;;;6.28;2.53;;;12.80;60.40;;;;;;6255174;28;20033;-74
2020/12/13 14:51:40;;;;;;;6.97;3.28;;;12.90;60.60;;;;;;6256512;28;20090;-73
2020/12/13 14:54:42;;;;;;;6.22;2.70;;;12.90;60.50;;;;;;6242662;28;20041;-73
2020/12/13 14:57:42;;;;;;;8.18;3.15;;;12.90;60.40;;;;;;6256732;28;20056;-73
2020/12/13 15:00:44;;;;;;;16.30;4.18;;;12.70;60.50;;;;;;6252548;28;20041;-72
2020/12/13 15:03:45;;;;;;;15.27;5.13;;;12.90;60.90;;;;;;6217008;28;20512;-74
2020/12/13 15:06:46;;;;;;;6.97;3.10;;;13.00;61.00;;;;;;6244636;28;20056;-73
2020/12/13 15:09:46;;;;;;;3.70;1.92;;;13.00;60.90;;;;;;6257229;28;20029;-73
2020/12/13 15:12:50;;;;;;;8.80;2.75;;;13.10;60.20;;;;;;6253036;28;20045;-73
2020/12/13 15:18:57;;;;;;;11.65;2.80;;;13.10;59.60;;;;;;6260410;28;20048;-74
2020/12/13 15:22:02;;;;;;;6.75;2.72;;;13.00;59.70;;;;;;6239957;28;20124;-72
2020/12/13 15:25:03;;;;;;;8.82;3.22;;;13.00;59.60;;;;;;6223217;28;20100;-74
2020/12/13 15:28:05;;;;;;;23.10;8.60;;;13.00;59.50;;;;;;6237196;28;20041;-73
2020/12/13 15:31:08;;;;;;;11.20;5.28;;;13.00;59.50;;;;;;6253999;28;20524;-73
2020/12/13 15:34:10;;;;;;;8.27;4.28;;;12.90;59.40;;;;;;6256732;28;20030;-74
2020/12/13 15:37:10;;;;;;;7.97;3.03;;;13.00;59.20;;;;;;6259792;28;20048;-73
2020/12/13 15:40:11;;;;;;;8.60;3.40;;;12.90;59.10;;;;;;6243592;28;20423;-73
2020/12/13 15:43:13;;;;;;;11.50;3.92;;;12.90;59.20;;;;;;6258731;28;20045;-73
2020/12/13 15:46:14;;;;;;;8.48;3.85;;;12.80;58.80;;;;;;6250912;28;20470;-73
2020/12/13 15:49:15;;;;;;;7.18;3.15;;;12.80;58.90;;;;;;6247722;28;20049;-73
2020/12/13 15:52:15;;;;;;;6.72;3.40;;;12.80;59.00;;;;;;6260758;28;20033;-74
2020/12/13 15:55:16;;;;;;;8.00;3.55;;;12.80;59.10;;;;;;6252064;28;20025;-73
2020/12/13 15:58:17;;;;;;;11.18;3.55;;;12.70;59.00;;;;;;6244136;28;20370;-72
2020/12/13 16:01:19;;;;;;;7.53;2.75;;;12.70;59.00;;;;;;6257946;28;20105;-73
2020/12/13 16:04:20;;;;;;;6.82;2.50;;;12.70;58.90;;;;;;6240487;28;20034;-73
2020/12/13 16:07:29;;;;;;;6.20;2.25;;;12.60;58.90;;;;;;6231820;28;20510;-74